sensor_id;sensor_type;location;lat;lon;timestamp;pressure;altitude;pressure_sealevel;temperature;humidity
31299;BME280;17927;52.350;13.402;2023-01-28T00:00:23;102287.63;;;5.83;50.57
31299;BME280;17927;52.350;13.402;2023-01-28T00:02:48;102285.09;;;5.80;50.37
31299;BME280;17927;52.350;13.402;2023-01-28T00:05:14;102288.91;;;5.76;50.60
31299;BME280;17927;52.350;13.402;2023-01-28T00:07:39;102286.34;;;5.73;50.52
31299;BME280;17927;52.350;13.402;2023-01-28T00:10:05;102288.28;;;5.69;50.60
31299;BME280;17927;52.350;13.402;2023-01-28T00:12:30;102289.31;;;5.67;50.73
31299;BME280;17927;52.350;13.402;2023-01-28T00:14:56;102292.22;;;5.62;50.85
31299;BME280;17927;52.350;13.402;2023-01-28T00:17:21;102278.09;;;5.58;50.81
31299;BME280;17927;52.350;13.402;2023-01-28T00:19:46;102276.50;;;5.54;50.77
31299;BME280;17927;52.350;13.402;2023-01-28T00:22:11;102292.66;;;5.53;50.70
31299;BME280;17927;52.350;13.402;2023-01-28T00:24:37;102287.44;;;5.49;50.83
31299;BME280;17927;52.350;13.402;2023-01-28T00:27:02;102294.75;;;5.46;51.01
31299;BME280;17927;52.350;13.402;2023-01-28T00:29:27;102290.50;;;5.42;51.04
31299;BME280;17927;52.350;13.402;2023-01-28T00:31:52;102292.50;;;5.37;51.01
31299;BME280;17927;52.350;13.402;2023-01-28T00:34:18;102298.00;;;5.33;51.00
31299;BME280;17927;52.350;13.402;2023-01-28T00:36:43;102304.47;;;5.29;51.05
31299;BME280;17927;52.350;13.402;2023-01-28T00:39:12;102304.66;;;5.25;50.94
31299;BME280;17927;52.350;13.402;2023-01-28T00:41:38;102303.13;;;5.19;51.28
31299;BME280;17927;52.350;13.402;2023-01-28T00:44:03;102295.31;;;5.14;51.17
31299;BME280;17927;52.350;13.402;2023-01-28T00:46:28;102291.91;;;5.11;51.05
31299;BME280;17927;52.350;13.402;2023-01-28T00:48:54;102288.41;;;5.09;51.11
31299;BME280;17927;52.350;13.402;2023-01-28T00:51:20;102302.81;;;5.06;51.38
31299;BME280;17927;52.350;13.402;2023-01-28T00:53:46;102296.81;;;5.01;51.30
31299;BME280;17927;52.350;13.402;2023-01-28T00:56:14;102308.59;;;4.97;51.35
31299;BME280;17927;52.350;13.402;2023-01-28T00:58:40;102321.31;;;4.92;51.28
31299;BME280;17927;52.350;13.402;2023-01-28T01:01:10;102316.03;;;4.90;51.70
31299;BME280;17927;52.350;13.402;2023-01-28T01:03:36;102317.09;;;4.86;51.39
31299;BME280;17927;52.350;13.402;2023-01-28T01:06:02;102317.22;;;4.83;51.61
31299;BME280;17927;52.350;13.402;2023-01-28T01:08:27;102322.72;;;4.80;51.59
31299;BME280;17927;52.350;13.402;2023-01-28T01:11:00;102313.09;;;4.76;51.32
31299;BME280;17927;52.350;13.402;2023-01-28T01:13:25;102318.53;;;4.74;51.60
31299;BME280;17927;52.350;13.402;2023-01-28T01:16:17;102315.97;;;4.71;51.65
31299;BME280;17927;52.350;13.402;2023-01-28T01:18:43;102311.69;;;4.67;51.59
31299;BME280;17927;52.350;13.402;2023-01-28T01:21:14;102319.72;;;4.67;51.63
31299;BME280;17927;52.350;13.402;2023-01-28T01:23:39;102312.59;;;4.66;51.57
31299;BME280;17927;52.350;13.402;2023-01-28T01:26:05;102307.34;;;4.64;51.69
31299;BME280;17927;52.350;13.402;2023-01-28T01:28:31;102308.28;;;4.63;51.73
31299;BME280;17927;52.350;13.402;2023-01-28T01:31:07;102304.78;;;4.61;51.45
31299;BME280;17927;52.350;13.402;2023-01-28T01:33:34;102311.16;;;4.59;51.63
31299;BME280;17927;52.350;13.402;2023-01-28T01:35:59;102306.72;;;4.57;51.64
31299;BME280;17927;52.350;13.402;2023-01-28T01:38:26;102323.72;;;4.56;51.71
31299;BME280;17927;52.350;13.402;2023-01-28T01:40:51;102319.44;;;4.52;51.67
31299;BME280;17927;52.350;13.402;2023-01-28T01:43:19;102319.56;;;4.49;51.69
31299;BME280;17927;52.350;13.402;2023-01-28T01:45:52;102331.28;;;4.47;51.65
31299;BME280;17927;52.350;13.402;2023-01-28T01:48:23;102326.13;;;4.42;51.88
31299;BME280;17927;52.350;13.402;2023-01-28T01:50:56;102329.78;;;4.39;51.86
31299;BME280;17927;52.350;13.402;2023-01-28T01:53:24;102334.31;;;4.37;51.93
31299;BME280;17927;52.350;13.402;2023-01-28T01:55:53;102330.84;;;4.35;51.94
31299;BME280;17927;52.350;13.402;2023-01-28T01:58:22;102335.31;;;4.35;51.84
31299;BME280;17927;52.350;13.402;2023-01-28T02:00:48;102339.84;;;4.33;52.29
31299;BME280;17927;52.350;13.402;2023-01-28T02:03:15;102340.91;;;4.29;52.05
31299;BME280;17927;52.350;13.402;2023-01-28T02:05:43;102346.34;;;4.27;52.52
31299;BME280;17927;52.350;13.402;2023-01-28T02:08:08;102344.59;;;4.26;52.57
31299;BME280;17927;52.350;13.402;2023-01-28T02:10:52;102343.66;;;4.27;52.84
31299;BME280;17927;52.350;13.402;2023-01-28T02:13:19;102339.97;;;4.30;52.67
31299;BME280;17927;52.350;13.402;2023-01-28T02:15:46;102346.94;;;4.34;52.70
31299;BME280;17927;52.350;13.402;2023-01-28T02:18:13;102339.75;;;4.36;53.08
31299;BME280;17927;52.350;13.402;2023-01-28T02:23:41;102340.47;;;4.39;53.14
31299;BME280;17927;52.350;13.402;2023-01-28T02:26:32;102344.78;;;4.44;53.19
31299;BME280;17927;52.350;13.402;2023-01-28T02:29:12;102337.56;;;4.46;53.12
31299;BME280;17927;52.350;13.402;2023-01-28T02:34:40;102340.75;;;4.54;53.23
31299;BME280;17927;52.350;13.402;2023-01-28T02:37:16;102347.81;;;4.56;53.29
31299;BME280;17927;52.350;13.402;2023-01-28T02:39:48;102347.66;;;4.60;53.39
31299;BME280;17927;52.350;13.402;2023-01-28T02:42:22;102334.22;;;4.61;53.54
31299;BME280;17927;52.350;13.402;2023-01-28T02:44:49;102338.56;;;4.64;53.49
31299;BME280;17927;52.350;13.402;2023-01-28T02:47:14;102335.78;;;4.67;53.52
31299;BME280;17927;52.350;13.402;2023-01-28T02:50:01;102339.31;;;4.67;53.43
31299;BME280;17927;52.350;13.402;2023-01-28T02:52:33;102337.31;;;4.72;53.43
31299;BME280;17927;52.350;13.402;2023-01-28T02:58:15;102339.84;;;4.76;53.38
31299;BME280;17927;52.350;13.402;2023-01-28T03:06:18;102341.41;;;4.81;53.63
31299;BME280;17927;52.350;13.402;2023-01-28T03:08:48;102346.63;;;4.84;53.67
31299;BME280;17927;52.350;13.402;2023-01-28T03:11:40;102346.50;;;4.87;53.70
31299;BME280;17927;52.350;13.402;2023-01-28T03:14:24;102342.28;;;4.82;53.74
31299;BME280;17927;52.350;13.402;2023-01-28T03:17:18;102349.22;;;4.86;54.04
31299;BME280;17927;52.350;13.402;2023-01-28T03:20:05;102340.13;;;4.90;53.87
31299;BME280;17927;52.350;13.402;2023-01-28T03:22:52;102341.75;;;4.94;53.82
31299;BME280;17927;52.350;13.402;2023-01-28T03:25:39;102343.31;;;4.98;53.69
31299;BME280;17927;52.350;13.402;2023-01-28T03:28:27;102341.41;;;5.02;53.65
31299;BME280;17927;52.350;13.402;2023-01-28T03:31:13;102349.38;;;5.03;53.62
31299;BME280;17927;52.350;13.402;2023-01-28T03:33:59;102339.59;;;5.02;53.68
31299;BME280;17927;52.350;13.402;2023-01-28T03:36:45;102338.66;;;5.03;53.63
31299;BME280;17927;52.350;13.402;2023-01-28T03:39:11;102337.63;;;5.06;53.61
31299;BME280;17927;52.350;13.402;2023-01-28T03:41:36;102343.75;;;5.10;53.38
31299;BME280;17927;52.350;13.402;2023-01-28T03:44:02;102328.47;;;5.12;53.52
31299;BME280;17927;52.350;13.402;2023-01-28T03:46:46;102339.19;;;5.12;53.77
31299;BME280;17927;52.350;13.402;2023-01-28T03:49:12;102329.25;;;5.14;53.57
31299;BME280;17927;52.350;13.402;2023-01-28T03:51:37;102330.06;;;5.16;53.41
31299;BME280;17927;52.350;13.402;2023-01-28T03:54:05;102329.19;;;5.15;53.43
31299;BME280;17927;52.350;13.402;2023-01-28T03:56:31;102329.06;;;5.18;53.58
31299;BME280;17927;52.350;13.402;2023-01-28T03:58:58;102329.88;;;5.21;53.42
31299;BME280;17927;52.350;13.402;2023-01-28T04:01:23;102335.22;;;5.21;53.43
31299;BME280;17927;52.350;13.402;2023-01-28T04:03:49;102327.19;;;5.21;53.54
31299;BME280;17927;52.350;13.402;2023-01-28T04:06:14;102328.03;;;5.21;53.22
31299;BME280;17927;52.350;13.402;2023-01-28T04:08:39;102325.38;;;5.21;53.48
31299;BME280;17927;52.350;13.402;2023-01-28T04:11:10;102344.13;;;5.21;53.31
31299;BME280;17927;52.350;13.402;2023-01-28T04:13:44;102326.31;;;5.20;53.32
31299;BME280;17927;52.350;13.402;2023-01-28T04:16:10;102325.44;;;5.20;53.57
31299;BME280;17927;52.350;13.402;2023-01-28T04:18:36;102328.97;;;5.20;53.33
31299;BME280;17927;52.350;13.402;2023-01-28T04:21:01;102329.88;;;5.21;53.54
31299;BME280;17927;52.350;13.402;2023-01-28T04:23:26;102334.25;;;5.22;53.30
31299;BME280;17927;52.350;13.402;2023-01-28T04:25:53;102336.00;;;5.23;53.37
31299;BME280;17927;52.350;13.402;2023-01-28T04:28:19;102339.50;;;5.25;53.14
31299;BME280;17927;52.350;13.402;2023-01-28T04:30:44;102349.22;;;5.27;53.13
31299;BME280;17927;52.350;13.402;2023-01-28T04:33:09;102339.44;;;5.26;53.25
31299;BME280;17927;52.350;13.402;2023-01-28T04:35:34;102346.47;;;5.29;53.01
31299;BME280;17927;52.350;13.402;2023-01-28T04:38:00;102345.59;;;5.28;53.35
31299;BME280;17927;52.350;13.402;2023-01-28T04:40:25;102348.13;;;5.31;53.35
31299;BME280;17927;52.350;13.402;2023-01-28T04:42:54;102350.75;;;5.33;53.13
31299;BME280;17927;52.350;13.402;2023-01-28T04:45:19;102348.06;;;5.33;53.25
31299;BME280;17927;52.350;13.402;2023-01-28T04:47:45;102348.00;;;5.34;52.62
31299;BME280;17927;52.350;13.402;2023-01-28T04:50:10;102348.88;;;5.35;53.12
31299;BME280;17927;52.350;13.402;2023-01-28T04:52:35;102351.56;;;5.35;53.15
31299;BME280;17927;52.350;13.402;2023-01-28T04:55:01;102348.78;;;5.37;52.75
31299;BME280;17927;52.350;13.402;2023-01-28T04:57:27;102355.03;;;5.37;52.93
31299;BME280;17927;52.350;13.402;2023-01-28T04:59:52;102351.38;;;5.38;52.73
31299;BME280;17927;52.350;13.402;2023-01-28T05:02:17;102351.34;;;5.40;52.68
31299;BME280;17927;52.350;13.402;2023-01-28T05:04:42;102348.56;;;5.41;52.56
31299;BME280;17927;52.350;13.402;2023-01-28T05:07:08;102351.19;;;5.43;52.39
31299;BME280;17927;52.350;13.402;2023-01-28T05:09:33;102357.41;;;5.43;52.37
31299;BME280;17927;52.350;13.402;2023-01-28T05:11:58;102360.03;;;5.45;52.37
31299;BME280;17927;52.350;13.402;2023-01-28T05:14:23;102360.03;;;5.45;52.10
31299;BME280;17927;52.350;13.402;2023-01-28T05:16:49;102368.88;;;5.47;52.04
31299;BME280;17927;52.350;13.402;2023-01-28T05:19:14;102369.66;;;5.49;52.05
31299;BME280;17927;52.350;13.402;2023-01-28T05:21:40;102370.47;;;5.51;51.77
31299;BME280;17927;52.350;13.402;2023-01-28T05:24:05;102365.91;;;5.53;51.87
31299;BME280;17927;52.350;13.402;2023-01-28T05:26:30;102372.94;;;5.56;51.74
31299;BME280;17927;52.350;13.402;2023-01-28T05:28:56;102387.28;;;5.55;51.49
31299;BME280;17927;52.350;13.402;2023-01-28T05:31:21;102381.88;;;5.56;51.43
31299;BME280;17927;52.350;13.402;2023-01-28T05:33:46;102382.72;;;5.57;51.49
31299;BME280;17927;52.350;13.402;2023-01-28T05:36:11;102377.34;;;5.57;51.26
31299;BME280;17927;52.350;13.402;2023-01-28T05:38:37;102389.78;;;5.59;51.53
31299;BME280;17927;52.350;13.402;2023-01-28T05:41:02;102376.28;;;5.61;51.20
31299;BME280;17927;52.350;13.402;2023-01-28T05:43:27;102381.56;;;5.62;51.13
31299;BME280;17927;52.350;13.402;2023-01-28T05:45:53;102384.19;;;5.64;51.21
31299;BME280;17927;52.350;13.402;2023-01-28T05:48:18;102375.25;;;5.63;51.22
31299;BME280;17927;52.350;13.402;2023-01-28T05:50:45;102378.84;;;5.64;51.04
31299;BME280;17927;52.350;13.402;2023-01-28T05:53:11;102369.75;;;5.67;51.01
31299;BME280;17927;52.350;13.402;2023-01-28T05:55:36;102376.00;;;5.67;50.97
31299;BME280;17927;52.350;13.402;2023-01-28T05:58:01;102373.25;;;5.69;51.01
31299;BME280;17927;52.350;13.402;2023-01-28T06:00:27;102376.78;;;5.69;51.00
31299;BME280;17927;52.350;13.402;2023-01-28T06:02:52;102374.91;;;5.71;50.82
31299;BME280;17927;52.350;13.402;2023-01-28T06:05:18;102369.50;;;5.73;50.96
31299;BME280;17927;52.350;13.402;2023-01-28T06:07:44;102376.50;;;5.75;50.64
31299;BME280;17927;52.350;13.402;2023-01-28T06:10:10;102379.09;;;5.77;50.93
31299;BME280;17927;52.350;13.402;2023-01-28T06:12:35;102378.25;;;5.76;50.63
31299;BME280;17927;52.350;13.402;2023-01-28T06:15:07;102378.25;;;5.76;50.79
31299;BME280;17927;52.350;13.402;2023-01-28T06:17:33;102379.28;;;5.74;50.77
31299;BME280;17927;52.350;13.402;2023-01-28T06:19:58;102383.69;;;5.75;50.77
31299;BME280;17927;52.350;13.402;2023-01-28T06:22:23;102381.06;;;5.73;50.93
31299;BME280;17927;52.350;13.402;2023-01-28T06:24:49;102383.84;;;5.72;50.63
31299;BME280;17927;52.350;13.402;2023-01-28T06:27:14;102385.63;;;5.71;50.97
31299;BME280;17927;52.350;13.402;2023-01-28T06:29:39;102376.72;;;5.71;50.89
31299;BME280;17927;52.350;13.402;2023-01-28T06:32:05;102382.09;;;5.71;50.62
31299;BME280;17927;52.350;13.402;2023-01-28T06:34:30;102389.13;;;5.73;50.62
31299;BME280;17927;52.350;13.402;2023-01-28T06:36:55;102389.06;;;5.75;50.62
31299;BME280;17927;52.350;13.402;2023-01-28T06:39:20;102379.19;;;5.75;50.32
31299;BME280;17927;52.350;13.402;2023-01-28T06:41:47;102376.44;;;5.77;50.75
31299;BME280;17927;52.350;13.402;2023-01-28T06:44:12;102388.03;;;5.77;50.50
31299;BME280;17927;52.350;13.402;2023-01-28T06:46:37;102395.16;;;5.78;50.68
31299;BME280;17927;52.350;13.402;2023-01-28T06:49:02;102396.00;;;5.79;50.38
31299;BME280;17927;52.350;13.402;2023-01-28T06:51:28;102391.53;;;5.79;50.43
31299;BME280;17927;52.350;13.402;2023-01-28T06:53:53;102384.34;;;5.80;50.46
31299;BME280;17927;52.350;13.402;2023-01-28T06:56:18;102398.63;;;5.81;50.46
31299;BME280;17927;52.350;13.402;2023-01-28T06:58:44;102392.38;;;5.80;50.42
31299;BME280;17927;52.350;13.402;2023-01-28T07:01:09;102392.47;;;5.78;50.68
31299;BME280;17927;52.350;13.402;2023-01-28T07:03:35;102395.16;;;5.78;50.51
31299;BME280;17927;52.350;13.402;2023-01-28T07:06:00;102394.22;;;5.79;50.81
31299;BME280;17927;52.350;13.402;2023-01-28T07:08:26;102395.06;;;5.80;50.63
31299;BME280;17927;52.350;13.402;2023-01-28T07:10:52;102398.63;;;5.81;50.77
31299;BME280;17927;52.350;13.402;2023-01-28T07:13:17;102393.19;;;5.82;50.86
31299;BME280;17927;52.350;13.402;2023-01-28T07:15:43;102395.88;;;5.82;51.10
31299;BME280;17927;52.350;13.402;2023-01-28T07:18:08;102387.78;;;5.84;50.94
31299;BME280;17927;52.350;13.402;2023-01-28T07:20:33;102398.50;;;5.84;50.91
31299;BME280;17927;52.350;13.402;2023-01-28T07:22:59;102400.22;;;5.85;50.94
31299;BME280;17927;52.350;13.402;2023-01-28T07:25:24;102410.00;;;5.86;51.06
31299;BME280;17927;52.350;13.402;2023-01-28T07:27:51;102400.16;;;5.86;50.89
31299;BME280;17927;52.350;13.402;2023-01-28T07:30:18;102405.44;;;5.88;51.13
31299;BME280;17927;52.350;13.402;2023-01-28T07:32:44;102407.19;;;5.89;51.14
31299;BME280;17927;52.350;13.402;2023-01-28T07:35:10;102399.13;;;5.89;50.93
31299;BME280;17927;52.350;13.402;2023-01-28T07:37:35;102400.06;;;5.88;51.27
31299;BME280;17927;52.350;13.402;2023-01-28T07:40:01;102395.66;;;5.87;50.98
31299;BME280;17927;52.350;13.402;2023-01-28T07:42:26;102398.31;;;5.87;50.98
31299;BME280;17927;52.350;13.402;2023-01-28T07:44:51;102408.13;;;5.88;51.17
31299;BME280;17927;52.350;13.402;2023-01-28T07:47:16;102405.28;;;5.91;51.07
31299;BME280;17927;52.350;13.402;2023-01-28T07:49:41;102405.22;;;5.92;50.83
31299;BME280;17927;52.350;13.402;2023-01-28T07:52:07;102395.22;;;5.96;51.26
31299;BME280;17927;52.350;13.402;2023-01-28T07:54:33;102399.66;;;5.97;51.22
31299;BME280;17927;52.350;13.402;2023-01-28T07:56:58;102411.19;;;5.99;51.08
31299;BME280;17927;52.350;13.402;2023-01-28T07:59:23;102409.31;;;6.01;51.04
31299;BME280;17927;52.350;13.402;2023-01-28T08:01:49;102409.16;;;6.04;51.13
31299;BME280;17927;52.350;13.402;2023-01-28T08:04:14;102410.78;;;6.08;50.81
31299;BME280;17927;52.350;13.402;2023-01-28T08:06:39;102414.16;;;6.12;50.84
31299;BME280;17927;52.350;13.402;2023-01-28T08:09:05;102400.63;;;6.15;51.23
31299;BME280;17927;52.350;13.402;2023-01-28T08:11:32;102404.09;;;6.17;50.82
31299;BME280;17927;52.350;13.402;2023-01-28T08:13:58;102405.75;;;6.20;50.99
31299;BME280;17927;52.350;13.402;2023-01-28T08:16:24;102410.13;;;6.22;50.77
31299;BME280;17927;52.350;13.402;2023-01-28T08:18:49;102412.72;;;6.24;50.59
31299;BME280;17927;52.350;13.402;2023-01-28T08:21:14;102409.09;;;6.25;50.58
31299;BME280;17927;52.350;13.402;2023-01-28T08:23:40;102417.00;;;6.28;50.84
31299;BME280;17927;52.350;13.402;2023-01-28T08:26:05;102422.19;;;6.31;50.54
31299;BME280;17927;52.350;13.402;2023-01-28T08:28:31;102427.50;;;6.33;50.89
31299;BME280;17927;52.350;13.402;2023-01-28T08:30:58;102431.06;;;6.33;50.84
31299;BME280;17927;52.350;13.402;2023-01-28T08:33:24;102430.09;;;6.34;50.86
31299;BME280;17927;52.350;13.402;2023-01-28T08:35:49;102425.53;;;6.36;50.70
31299;BME280;17927;52.350;13.402;2023-01-28T08:38:14;102433.53;;;6.38;50.93
31299;BME280;17927;52.350;13.402;2023-01-28T08:40:41;102431.56;;;6.42;50.61
31299;BME280;17927;52.350;13.402;2023-01-28T08:43:06;102432.38;;;6.44;50.91
31299;BME280;17927;52.350;13.402;2023-01-28T08:45:32;102438.53;;;6.46;50.74
31299;BME280;17927;52.350;13.402;2023-01-28T08:48:03;102447.44;;;6.46;50.30
31299;BME280;17927;52.350;13.402;2023-01-28T08:50:31;102447.31;;;6.49;50.45
31299;BME280;17927;52.350;13.402;2023-01-28T08:52:59;102444.53;;;6.51;49.99
31299;BME280;17927;52.350;13.402;2023-01-28T08:55:25;102446.28;;;6.52;50.08
31299;BME280;17927;52.350;13.402;2023-01-28T08:57:51;102445.41;;;6.51;50.14
31299;BME280;17927;52.350;13.402;2023-01-28T09:00:17;102440.91;;;6.52;50.12
31299;BME280;17927;52.350;13.402;2023-01-28T09:02:43;102451.63;;;6.52;49.71
31299;BME280;17927;52.350;13.402;2023-01-28T09:05:08;102456.16;;;6.51;49.58
31299;BME280;17927;52.350;13.402;2023-01-28T09:07:34;102451.63;;;6.52;49.28
31299;BME280;17927;52.350;13.402;2023-01-28T09:10:00;102464.94;;;6.55;49.54
31299;BME280;17927;52.350;13.402;2023-01-28T09:12:25;102467.53;;;6.57;49.12
31299;BME280;17927;52.350;13.402;2023-01-28T09:14:51;102468.25;;;6.60;49.39
31299;BME280;17927;52.350;13.402;2023-01-28T09:17:17;102468.19;;;6.62;49.00
31299;BME280;17927;52.350;13.402;2023-01-28T09:19:42;102466.34;;;6.62;49.10
31299;BME280;17927;52.350;13.402;2023-01-28T09:22:07;102476.16;;;6.63;49.04
31299;BME280;17927;52.350;13.402;2023-01-28T09:24:32;102472.47;;;6.66;48.86
31299;BME280;17927;52.350;13.402;2023-01-28T09:26:57;102479.50;;;6.68;48.98
31299;BME280;17927;52.350;13.402;2023-01-28T09:29:23;102491.03;;;6.70;48.85
31299;BME280;17927;52.350;13.402;2023-01-28T09:31:48;102486.50;;;6.71;48.47
31299;BME280;17927;52.350;13.402;2023-01-28T09:34:13;102496.25;;;6.74;48.61
31299;BME280;17927;52.350;13.402;2023-01-28T09:36:39;102495.31;;;6.75;48.49
31299;BME280;17927;52.350;13.402;2023-01-28T09:39:04;102491.69;;;6.76;48.52
31299;BME280;17927;52.350;13.402;2023-01-28T09:42:13;102487.88;;;6.80;48.13
31299;BME280;17927;52.350;13.402;2023-01-28T09:45:05;102487.81;;;6.81;48.19
31299;BME280;17927;52.350;13.402;2023-01-28T09:47:51;102484.19;;;6.82;48.38
31299;BME280;17927;52.350;13.402;2023-01-28T09:50:35;102486.56;;;6.89;47.97
31299;BME280;17927;52.350;13.402;2023-01-28T09:53:24;102483.72;;;6.92;48.06
31299;BME280;17927;52.350;13.402;2023-01-28T09:56:00;102493.38;;;6.96;48.37
31299;BME280;17927;52.350;13.402;2023-01-28T09:58:26;102487.84;;;6.99;48.22
31299;BME280;17927;52.350;13.402;2023-01-28T10:04:25;102495.59;;;7.05;47.81
31299;BME280;17927;52.350;13.402;2023-01-28T10:12:44;102495.06;;;7.16;47.84
31299;BME280;17927;52.350;13.402;2023-01-28T10:15:44;102487.78;;;7.18;47.89
31299;BME280;17927;52.350;13.402;2023-01-28T10:18:12;102484.00;;;7.22;nan
31299;BME280;17927;52.350;13.402;2023-01-28T10:20:44;102484.63;;;7.27;47.95
31299;BME280;17927;52.350;13.402;2023-01-28T10:23:23;102488.88;;;7.31;47.77
31299;BME280;17927;52.350;13.402;2023-01-28T10:25:51;102481.63;;;7.34;47.55
31299;BME280;17927;52.350;13.402;2023-01-28T10:28:20;102472.44;;;7.38;47.59
31299;BME280;17927;52.350;13.402;2023-01-28T10:30:47;102476.78;;;7.40;47.51
31299;BME280;17927;52.350;13.402;2023-01-28T10:33:23;102473.00;;;7.44;47.20
31299;BME280;17927;52.350;13.402;2023-01-28T10:35:54;102471.16;;;7.45;47.00
31299;BME280;17927;52.350;13.402;2023-01-28T10:38:21;102471.88;;;7.49;46.95
31299;BME280;17927;52.350;13.402;2023-01-28T10:40:48;102478.91;;;7.51;47.23
31299;BME280;17927;52.350;13.402;2023-01-28T10:43:15;102474.34;;;7.53;47.35
31299;BME280;17927;52.350;13.402;2023-01-28T10:45:56;102470.59;;;7.56;46.90
31299;BME280;17927;52.350;13.402;2023-01-28T10:48:23;102469.41;;;7.44;47.45
31299;BME280;17927;52.350;13.402;2023-01-28T10:50:52;102467.53;;;7.46;47.60
31299;BME280;17927;52.350;13.402;2023-01-28T10:53:18;102452.09;;;7.50;47.31
31299;BME280;17927;52.350;13.402;2023-01-28T10:55:53;102462.00;;;7.49;46.60
31299;BME280;17927;52.350;13.402;2023-01-28T10:58:22;102468.31;;;7.48;46.93
31299;BME280;17927;52.350;13.402;2023-01-28T11:00:52;102466.47;;;7.49;46.41
31299;BME280;17927;52.350;13.402;2023-01-28T11:03:19;102470.91;;;7.50;46.74
31299;BME280;17927;52.350;13.402;2023-01-28T11:05:51;102469.97;;;7.51;46.62
31299;BME280;17927;52.350;13.402;2023-01-28T11:08:18;102474.34;;;7.53;46.65
31299;BME280;17927;52.350;13.402;2023-01-28T11:10:46;102467.13;;;7.54;46.73
31299;BME280;17927;52.350;13.402;2023-01-28T11:13:20;102463.38;;;7.56;46.41
31299;BME280;17927;52.350;13.402;2023-01-28T11:16:02;102462.44;;;7.57;46.17
31299;BME280;17927;52.350;13.402;2023-01-28T11:18:34;102468.78;;;7.56;46.38
31299;BME280;17927;52.350;13.402;2023-01-28T11:21:02;102465.13;;;7.57;46.82
31299;BME280;17927;52.350;13.402;2023-01-28T11:23:30;102460.53;;;7.59;46.91
31299;BME280;17927;52.350;13.402;2023-01-28T11:25:59;102463.16;;;7.61;46.62
31299;BME280;17927;52.350;13.402;2023-01-28T11:28:26;102451.47;;;7.62;46.52
31299;BME280;17927;52.350;13.402;2023-01-28T11:30:53;102453.97;;;7.65;46.09
31299;BME280;17927;52.350;13.402;2023-01-28T11:33:35;102451.22;;;7.67;46.38
31299;BME280;17927;52.350;13.402;2023-01-28T11:36:07;102453.91;;;7.67;46.26
31299;BME280;17927;52.350;13.402;2023-01-28T11:38:46;102459.19;;;7.68;46.18
31299;BME280;17927;52.350;13.402;2023-01-28T11:41:13;102457.28;;;7.70;46.28
31299;BME280;17927;52.350;13.402;2023-01-28T11:43:39;102455.44;;;7.71;46.58
31299;BME280;17927;52.350;13.402;2023-01-28T11:46:20;102452.59;;;7.74;46.09
31299;BME280;17927;52.350;13.402;2023-01-28T11:49:19;102440.88;;;7.75;46.12
31299;BME280;17927;52.350;13.402;2023-01-28T11:51:59;102440.09;;;7.73;46.14
31299;BME280;17927;52.350;13.402;2023-01-28T11:57:23;102433.50;;;7.78;45.84
31299;BME280;17927;52.350;13.402;2023-01-28T12:00:17;102429.00;;;7.79;46.18
31299;BME280;17927;52.350;13.402;2023-01-28T12:05:47;102424.59;;;7.78;45.71
31299;BME280;17927;52.350;13.402;2023-01-28T12:08:25;102420.94;;;7.79;45.75
31299;BME280;17927;52.350;13.402;2023-01-28T12:13:54;102428.06;;;7.80;46.38
31299;BME280;17927;52.350;13.402;2023-01-28T12:19:18;102423.47;;;7.82;46.29
31299;BME280;17927;52.350;13.402;2023-01-28T12:21:59;102432.50;;;7.81;46.37
31299;BME280;17927;52.350;13.402;2023-01-28T12:24:41;102426.22;;;7.81;46.18
31299;BME280;17927;52.350;13.402;2023-01-28T12:27:17;102421.53;;;7.68;46.87
31299;BME280;17927;52.350;13.402;2023-01-28T12:30:00;102408.00;;;7.70;46.93
31299;BME280;17927;52.350;13.402;2023-01-28T12:32:50;102420.47;;;7.71;46.59
31299;BME280;17927;52.350;13.402;2023-01-28T12:40:58;102424.06;;;7.71;46.61
31299;BME280;17927;52.350;13.402;2023-01-28T12:43:40;102413.97;;;7.75;46.77
31299;BME280;17927;52.350;13.402;2023-01-28T12:46:41;102407.66;;;7.76;46.96
31299;BME280;17927;52.350;13.402;2023-01-28T12:49:17;102417.47;;;7.77;46.62
31299;BME280;17927;52.350;13.402;2023-01-28T12:52:09;102412.78;;;7.81;47.05
31299;BME280;17927;52.350;13.402;2023-01-28T12:57:27;102417.94;;;7.85;47.01
31299;BME280;17927;52.350;13.402;2023-01-28T13:00:04;102419.41;;;7.91;46.94
31299;BME280;17927;52.350;13.402;2023-01-28T13:02:34;102407.69;;;7.92;46.92
31299;BME280;17927;52.350;13.402;2023-01-28T13:05:13;102412.03;;;7.95;46.65
31299;BME280;17927;52.350;13.402;2023-01-28T13:07:45;102404.91;;;7.93;46.99
31299;BME280;17927;52.350;13.402;2023-01-28T13:10:37;102408.38;;;7.96;46.51
31299;BME280;17927;52.350;13.402;2023-01-28T13:13:05;102408.97;;;7.85;46.99
31299;BME280;17927;52.350;13.402;2023-01-28T13:15:31;102409.66;;;7.88;47.01
31299;BME280;17927;52.350;13.402;2023-01-28T13:18:04;102406.66;;;7.95;47.17
31299;BME280;17927;52.350;13.402;2023-01-28T13:20:48;102397.50;;;7.97;46.59
31299;BME280;17927;52.350;13.402;2023-01-28T13:26:23;102390.16;;;8.01;46.66
31299;BME280;17927;52.350;13.402;2023-01-28T13:28:52;102382.94;;;8.01;46.73
31299;BME280;17927;52.350;13.402;2023-01-28T13:31:21;102372.88;;;8.05;46.71
31299;BME280;17927;52.350;13.402;2023-01-28T13:36:31;102388.16;;;8.04;47.35
31299;BME280;17927;52.350;13.402;2023-01-28T13:39:13;102378.69;;;8.13;47.53
31299;BME280;17927;52.350;13.402;2023-01-28T13:41:41;102374.63;;;8.22;47.22
31299;BME280;17927;52.350;13.402;2023-01-28T13:44:29;102381.28;;;8.31;47.01
31299;BME280;17927;52.350;13.402;2023-01-28T13:49:37;102374.59;;;8.38;46.69
31299;BME280;17927;52.350;13.402;2023-01-28T13:52:11;102371.72;;;8.41;46.79
31299;BME280;17927;52.350;13.402;2023-01-28T13:54:43;102379.00;;;8.39;46.31